Time;durP1;ratioP1;P1;durP2;ratioP2;P2;SDS_P1;SDS_P2;PMS_P1;PMS_P2;Temp;Humidity;BMP_temperature;BMP_pressure;BME280_temperature;BME280_humidity;BME280_pressure;Samples;Min_cycle;Max_cycle;Signal;HPM_P1;HPM_P2
2022/07/11 00:00:05;;;;;;;5.05;2.85;;;;;;;17.64;64.90;100730.00;5056094;28;20044;-58
2022/07/11 00:02:49;;;;;;;5.07;2.83;;;;;;;17.64;64.85;100734.38;5040344;28;20064;-58
2022/07/11 00:05:33;;;;;;;5.20;2.47;;;;;;;17.63;64.84;100722.13;5040545;28;20171;-58
2022/07/11 00:08:17;;;;;;;2.97;2.42;;;;;;;17.63;64.86;100724.75;5055126;28;20048;-58
2022/07/11 00:11:01;;;;;;;3.25;2.38;;;;;;;17.62;64.77;100726.53;5055794;28;20086;-58
2022/07/11 00:13:45;;;;;;;5.32;2.60;;;;;;;17.62;64.79;100730.88;5055360;28;20412;-58
2022/07/11 00:16:29;;;;;;;3.67;2.45;;;;;;;17.60;65.06;100717.78;5055524;28;20075;-59
2022/07/11 00:19:13;;;;;;;5.45;2.53;;;;;;;17.61;64.78;100731.75;5055430;28;20417;-59
2022/07/11 00:22:00;;;;;;;4.90;2.53;;;;;;;17.59;64.89;100723.03;5055466;28;20106;-60
2022/07/11 00:24:44;;;;;;;3.50;2.58;;;;;;;17.58;64.96;100719.53;5055193;28;20051;-60
2022/07/11 00:27:28;;;;;;;4.22;2.70;;;;;;;17.58;64.74;100723.91;5055144;28;20044;-60
2022/07/11 00:30:12;;;;;;;3.50;2.65;;;;;;;17.57;64.73;100720.41;5054984;28;20094;-60
2022/07/11 00:32:56;;;;;;;3.55;2.60;;;;;;;17.57;64.91;100716.94;5040070;28;20102;-59
2022/07/11 00:35:40;;;;;;;5.25;3.00;;;;;;;17.56;64.89;100715.19;5054980;28;20118;-60
2022/07/11 00:38:24;;;;;;;5.03;3.25;;;;;;;17.56;64.83;100718.66;5055312;28;20124;-60
2022/07/11 00:41:08;;;;;;;3.38;2.10;;;;;;;17.55;64.84;100708.19;5055152;28;20133;-59
2022/07/11 00:43:56;;;;;;;4.05;2.78;;;;;;;17.56;64.79;100712.56;5054696;28;20118;-59
2022/07/11 00:46:40;;;;;;;3.60;2.33;;;;;;;17.54;64.86;100699.44;5040048;28;20404;-60
2022/07/11 00:49:24;;;;;;;4.97;2.97;;;;;;;17.54;64.88;100706.44;5054939;28;20044;-60
2022/07/11 00:52:09;;;;;;;5.22;2.58;;;;;;;17.54;65.15;100703.81;5039486;28;20083;-60
2022/07/11 00:54:53;;;;;;;6.20;2.92;;;;;;;17.54;64.85;100706.44;5039337;28;20090;-60
2022/07/11 00:57:38;;;;;;;2.90;2.55;;;;;;;17.54;64.78;100701.19;5054638;28;20438;-59
2022/07/11 01:00:22;;;;;;;3.95;2.75;;;;;;;17.53;64.69;100700.31;5054673;28;20048;-59
2022/07/11 01:03:07;;;;;;;5.72;2.92;;;;;;;17.52;64.72;100701.19;5054691;28;20083;-59
2022/07/11 01:05:51;;;;;;;6.03;3.60;;;;;;;17.52;64.71;100698.56;5054580;28;20452;-60
2022/07/11 01:08:36;;;;;;;3.58;3.15;;;;;;;17.51;64.88;100694.22;5054555;28;20114;-59
2022/07/11 01:11:22;;;;;;;5.93;3.22;;;;;;;17.50;64.81;100689.88;5039664;28;20498;-59
2022/07/11 01:14:06;;;;;;;4.50;2.80;;;;;;;17.50;64.79;100693.34;5039493;28;20469;-59
2022/07/11 01:16:51;;;;;;;3.92;3.17;;;;;;;17.50;64.65;100698.59;5054205;28;20431;-60
2022/07/11 01:19:35;;;;;;;3.95;3.10;;;;;;;17.53;64.97;100695.06;5038668;28;20095;-59
2022/07/11 01:22:23;;;;;;;4.85;2.75;;;;;;;17.53;64.76;100689.81;5054428;28;20052;-59
2022/07/11 01:25:07;;;;;;;3.20;2.75;;;;;;;17.51;65.11;100686.38;5039096;28;20128;-59
2022/07/11 01:27:51;;;;;;;6.07;3.10;;;;;;;17.53;65.00;100689.81;5054114;28;20068;-59
2022/07/11 01:30:35;;;;;;;7.22;3.00;;;;;;;17.53;65.00;100683.72;5053836;28;20113;-60
2022/07/11 01:33:19;;;;;;;6.05;3.65;;;;;;;17.53;64.91;100681.97;5054172;28;20055;-59
2022/07/11 01:36:03;;;;;;;4.53;2.75;;;;;;;17.53;64.97;100686.34;5053947;28;20044;-59
2022/07/11 01:38:48;;;;;;;4.38;2.90;;;;;;;17.51;64.68;100678.50;5054167;28;20052;-60
2022/07/11 01:41:31;;;;;;;5.32;2.80;;;;;;;17.53;64.98;100687.22;5053540;28;20116;-59
2022/07/11 01:44:15;;;;;;;3.95;2.45;;;;;;;17.53;65.05;100683.72;5053882;28;20039;-59
2022/07/11 01:46:59;;;;;;;4.00;2.85;;;;;;;17.52;64.94;100682.84;5054141;28;20451;-59
2022/07/11 01:49:43;;;;;;;6.40;3.85;;;;;;;17.51;64.72;100681.13;5054065;28;20079;-59
2022/07/11 01:52:28;;;;;;;4.13;2.58;;;;;;;17.53;64.88;100681.13;5053452;28;20059;-59
2022/07/11 01:55:12;;;;;;;6.15;2.92;;;;;;;17.51;65.08;100686.38;5053785;28;20091;-60
2022/07/11 01:57:56;;;;;;;;;;;;;;;17.49;64.81;100688.13;5053860;28;20044;-60
2022/07/11 02:00:40;;;;;;;6.40;3.10;;;;;;;17.48;64.91;100689.84;5038799;28;19920;-59
2022/07/11 02:03:24;;;;;;;5.07;3.63;;;;;;;17.48;64.84;100689.00;5053796;28;20052;-59
2022/07/11 02:06:10;;;;;;;6.30;3.63;;;;;;;17.47;64.93;100684.63;5053014;28;20110;-60
2022/07/11 02:08:54;;;;;;;5.22;2.83;;;;;;;17.48;64.72;100689.00;5053231;28;20110;-58
2022/07/11 02:11:40;;;;;;;4.30;3.28;;;;;;;17.47;64.74;100689.88;5053803;28;20396;-58
2022/07/11 02:14:24;;;;;;;4.60;3.70;;;;;;;17.45;64.84;100684.59;5038463;28;20047;-58
2022/07/11 02:17:08;;;;;;;3.97;3.55;;;;;;;17.46;64.90;100690.75;5053442;28;20048;-59
2022/07/11 02:19:53;;;;;;;4.30;3.40;;;;;;;17.46;65.00;100688.13;5038608;28;20459;-58
2022/07/11 02:22:37;;;;;;;5.32;3.28;;;;;;;17.44;64.95;100687.25;5052928;28;20098;-58
2022/07/11 02:25:22;;;;;;;5.57;3.65;;;;;;;17.44;65.06;100685.47;5038251;28;20056;-58
2022/07/11 02:28:10;;;;;;;9.20;3.78;;;;;;;17.43;64.94;100681.16;5052931;28;20523;-58
2022/07/11 02:30:54;;;;;;;4.53;3.17;;;;;;;17.41;64.84;100682.91;5040303;28;20477;-58
2022/07/11 02:33:38;;;;;;;6.15;3.63;;;;;;;17.42;64.89;100683.75;5057191;28;20043;-58
2022/07/11 02:36:22;;;;;;;5.53;4.05;;;;;;;17.42;64.96;100683.75;5057167;28;20403;-59
2022/07/11 02:39:06;;;;;;;4.82;3.75;;;;;;;17.41;65.03;100677.66;5057154;28;20466;-59
2022/07/11 02:41:50;;;;;;;5.53;3.80;;;;;;;17.40;64.97;100680.25;5057092;28;20103;-60
2022/07/11 02:44:34;;;;;;;7.97;4.30;;;;;;;17.40;65.10;100686.38;5042259;28;20047;-60
2022/07/11 02:47:18;;;;;;;6.82;3.55;;;;;;;17.41;65.22;100679.38;5056946;28;20124;-60
2022/07/11 02:50:02;;;;;;;6.43;3.58;;;;;;;17.40;65.03;100680.25;5041781;28;20496;-60
2022/07/11 02:52:47;;;;;;;5.18;3.30;;;;;;;17.40;65.02;100675.00;5042525;28;20396;-59
2022/07/11 02:55:30;;;;;;;5.05;3.53;;;;;;;17.40;64.99;100675.91;5041981;28;20102;-59
2022/07/11 02:58:14;;;;;;;6.10;3.17;;;;;;;17.40;64.99;100677.63;5042092;28;20079;-60
2022/07/11 03:00:59;;;;;;;5.03;3.90;;;;;;;17.41;65.02;100674.16;5057066;28;20102;-59
2022/07/11 03:03:43;;;;;;;9.00;4.15;;;;;;;17.41;65.22;100674.16;5056654;28;20036;-60
2022/07/11 03:06:27;;;;;;;4.38;3.55;;;;;;;17.41;65.38;100676.75;5057115;28;20059;-59
2022/07/11 03:09:11;;;;;;;8.13;3.60;;;;;;;17.41;65.11;100677.66;5056851;28;20040;-59
2022/07/11 03:11:55;;;;;;;7.65;4.07;;;;;;;17.40;65.22;100675.91;5056342;28;20198;-58
2022/07/11 03:14:39;;;;;;;5.25;3.53;;;;;;;17.39;64.93;100682.03;5056673;28;20052;-60
2022/07/11 03:17:23;;;;;;;6.07;3.17;;;;;;;17.39;65.13;100679.41;5056408;28;20135;-60
2022/07/11 03:20:07;;;;;;;;;;;;;;;17.37;64.81;100681.16;5041953;28;20087;-59
2022/07/11 03:22:51;;;;;;;5.97;3.35;;;;;;;17.36;64.91;100682.03;5041195;28;19920;-58
2022/07/11 03:25:35;;;;;;;7.50;3.60;;;;;;;17.37;64.85;100686.38;5056221;28;20052;-58
2022/07/11 03:28:19;;;;;;;4.55;3.63;;;;;;;17.35;64.92;100683.78;5041255;28;20463;-59
2022/07/11 03:31:03;;;;;;;5.65;3.95;;;;;;;17.35;65.00;100689.03;5056329;28;20462;-60
2022/07/11 03:33:47;;;;;;;4.90;3.20;;;;;;;17.37;64.86;100690.72;5055971;28;20558;-60
2022/07/11 03:36:32;;;;;;;6.43;4.10;;;;;;;17.35;65.12;100691.66;5055996;28;20569;-60
2022/07/11 03:39:16;;;;;;;3.88;3.20;;;;;;;17.35;64.98;100694.25;5056347;28;20136;-60
2022/07/11 03:42:01;;;;;;;;;;;;;;;17.34;64.97;100692.50;5041032;28;20120;-60
2022/07/11 03:44:45;;;;;;;4.32;3.08;;;;;;;17.33;64.90;100700.34;5055957;28;19930;-60
2022/07/11 03:47:29;;;;;;;8.35;4.13;;;;;;;17.34;65.16;100699.47;5055684;28;20474;-60
2022/07/11 03:50:12;;;;;;;6.70;4.30;;;;;;;17.34;64.95;100702.09;5055983;28;20126;-59
2022/07/11 03:52:57;;;;;;;4.43;3.35;;;;;;;17.32;64.87;100702.13;5056440;28;20056;-60
2022/07/11 03:55:41;;;;;;;5.82;3.88;;;;;;;17.33;64.87;100692.50;5055595;28;20064;-60
2022/07/11 03:58:25;;;;;;;5.28;4.07;;;;;;;17.32;65.01;100689.03;5056152;28;20523;-60
2022/07/11 04:01:09;;;;;;;6.18;3.97;;;;;;;17.31;65.19;100700.38;5055335;28;20084;-60
2022/07/11 04:03:53;;;;;;;5.40;3.88;;;;;;;17.31;65.21;100705.63;5055674;28;20518;-60
2022/07/11 04:06:36;;;;;;;5.78;3.72;;;;;;;17.30;65.13;100696.00;5055986;28;20103;-59
2022/07/11 04:09:20;;;;;;;7.85;4.55;;;;;;;17.29;65.06;100699.50;5055900;28;20132;-59
2022/07/11 04:12:05;;;;;;;6.55;3.88;;;;;;;17.28;64.82;100702.13;5055438;28;20103;-58
2022/07/11 04:14:49;;;;;;;4.60;3.60;;;;;;;17.28;65.19;100704.75;5055253;28;20048;-58
2022/07/11 04:17:32;;;;;;;8.80;4.03;;;;;;;17.27;65.23;100701.25;5055336;28;20135;-58
2022/07/11 04:20:16;;;;;;;5.95;3.78;;;;;;;17.27;65.04;100703.00;5055039;28;20508;-58
2022/07/11 04:23:00;;;;;;;4.13;3.67;;;;;;;17.25;65.00;100692.50;5055742;28;20067;-58
2022/07/11 04:25:44;;;;;;;4.45;3.65;;;;;;;17.25;64.95;100689.88;5055224;28;20051;-59
2022/07/11 04:28:28;;;;;;;7.60;4.45;;;;;;;17.25;65.25;100691.66;5039744;28;20071;-59
2022/07/11 04:31:15;;;;;;;9.93;3.88;;;;;;;17.23;64.86;100699.50;5055203;28;20052;-59
2022/07/11 04:33:59;;;;;;;7.05;4.03;;;;;;;17.24;65.08;100698.63;5039792;28;20132;-59
2022/07/11 04:36:44;;;;;;;7.38;4.05;;;;;;;17.22;65.03;100705.59;5055303;28;20047;-58
2022/07/11 04:39:28;;;;;;;5.57;4.10;;;;;;;17.22;65.01;100702.97;5040029;28;20519;-58
2022/07/11 04:42:12;;;;;;;6.28;4.63;;;;;;;17.22;64.98;100707.38;5055054;28;20056;-58
2022/07/11 04:44:56;;;;;;;5.20;3.90;;;;;;;17.22;65.00;100704.75;5054949;28;20558;-58
2022/07/11 04:47:41;;;;;;;5.45;4.55;;;;;;;17.20;65.00;100708.25;5040175;28;20059;-58
2022/07/11 04:50:25;;;;;;;5.90;4.30;;;;;;;17.21;65.23;100706.47;5054788;28;20094;-58
2022/07/11 04:53:10;;;;;;;9.52;4.68;;;;;;;17.21;65.12;100709.09;5054528;28;20114;-58
2022/07/11 04:55:54;;;;;;;6.10;3.67;;;;;;;17.19;65.01;100711.72;5053711;28;20047;-58
2022/07/11 04:58:38;;;;;;;8.63;4.60;;;;;;;17.20;65.05;100716.09;5054281;28;20126;-59
2022/07/11 05:01:25;;;;;;;7.55;4.60;;;;;;;17.20;65.15;100712.63;5053829;28;20066;-59
2022/07/11 05:04:09;;;;;;;5.65;4.43;;;;;;;17.18;65.08;100702.13;5039491;28;20094;-58
2022/07/11 05:06:53;;;;;;;5.10;4.03;;;;;;;17.18;64.99;100702.13;5054249;28;20048;-58
2022/07/11 05:09:37;;;;;;;7.57;4.82;;;;;;;17.17;65.13;100699.50;5039148;28;20446;-59
2022/07/11 05:12:21;;;;;;;7.05;5.05;;;;;;;17.16;64.96;100703.88;5054623;28;20102;-58
2022/07/11 05:15:06;;;;;;;8.10;5.00;;;;;;;17.16;65.34;100711.72;5054089;28;20044;-58
2022/07/11 05:17:50;;;;;;;7.78;5.05;;;;;;;17.17;65.13;100704.75;5039504;28;20070;-59
2022/07/11 05:20:34;;;;;;;7.80;4.45;;;;;;;17.17;65.18;100713.47;5054320;28;20087;-58
2022/07/11 05:23:18;;;;;;;9.25;5.78;;;;;;;17.16;65.16;100709.09;5053959;28;20163;-58
2022/07/11 05:26:04;;;;;;;;;;;;;;;17.15;65.26;100712.59;5054867;28;20051;-59
2022/07/11 05:28:48;;;;;;;6.35;4.82;;;;;;;17.14;65.21;100718.69;5038685;28;19962;-60
2022/07/11 05:31:33;;;;;;;8.80;4.88;;;;;;;17.16;65.26;100721.34;5053928;28;20076;-58
2022/07/11 05:34:17;;;;;;;8.30;5.22;;;;;;;17.16;65.21;100723.97;5038813;28;20043;-59
2022/07/11 05:37:01;;;;;;;7.03;5.03;;;;;;;17.16;65.42;100716.97;5053830;28;20055;-58
2022/07/11 05:39:45;;;;;;;7.50;5.32;;;;;;;17.16;65.50;100718.72;5053734;28;20069;-58
2022/07/11 05:42:31;;;;;;;6.25;5.25;;;;;;;17.15;65.22;100714.34;5053386;28;20052;-58
2022/07/11 05:45:15;;;;;;;7.72;6.10;;;;;;;17.15;65.47;100720.44;5038722;28;20052;-60
2022/07/11 05:47:59;;;;;;;11.98;6.10;;;;;;;17.16;65.45;100719.56;5054129;28;20052;-58
2022/07/11 05:50:43;;;;;;;7.50;5.75;;;;;;;17.17;65.62;100720.47;5054077;28;20210;-59
2022/07/11 05:53:27;;;;;;;10.07;6.35;;;;;;;17.15;65.67;100712.59;5053660;28;20091;-59
2022/07/11 05:56:11;;;;;;;11.10;6.28;;;;;;;17.17;65.66;100734.41;5038528;28;20413;-58
2022/07/11 05:58:56;;;;;;;9.82;6.72;;;;;;;17.18;65.68;100724.84;5038454;28;20052;-59
2022/07/11 06:01:40;;;;;;;7.35;6.15;;;;;;;17.18;65.78;100730.94;5038554;28;20527;-58
2022/07/11 06:04:24;;;;;;;8.50;6.35;;;;;;;17.20;65.69;100725.72;5053309;28;20055;-59
2022/07/11 06:07:08;;;;;;;14.85;7.72;;;;;;;17.19;65.88;100737.06;5053494;28;20047;-59
2022/07/11 06:09:53;;;;;;;9.32;5.90;;;;;;;17.20;65.71;100731.81;5053126;28;20117;-59
2022/07/11 06:12:36;;;;;;;9.85;7.07;;;;;;;17.22;65.96;100733.56;5038715;28;20487;-60
2022/07/11 06:15:21;;;;;;;13.25;6.45;;;;;;;17.23;66.06;100735.31;5038749;28;20055;-60
2022/07/11 06:18:06;;;;;;;9.18;6.85;;;;;;;17.24;65.82;100743.16;5052443;28;20374;-60
2022/07/11 06:20:50;;;;;;;9.38;7.13;;;;;;;17.22;66.07;100739.66;5053258;28;20047;-60
2022/07/11 06:23:34;;;;;;;10.48;6.57;;;;;;;17.23;65.97;100749.25;5053275;28;20106;-60
2022/07/11 06:26:18;;;;;;;;;;;;;;;17.22;65.95;100752.75;5053618;28;20056;-60
2022/07/11 06:29:02;;;;;;;7.78;6.93;;;;;;;17.20;66.00;100750.16;5053280;28;20295;-60
2022/07/11 06:31:47;;;;;;;10.93;6.65;;;;;;;17.22;66.23;100752.75;5053323;28;20044;-60
2022/07/11 06:34:31;;;;;;;11.52;7.05;;;;;;;17.22;66.21;100754.50;5053083;28;20063;-60
2022/07/11 06:37:15;;;;;;;10.18;6.93;;;;;;;17.22;66.08;100746.66;5053534;28;20044;-60
2022/07/11 06:39:59;;;;;;;8.55;7.47;;;;;;;17.23;66.14;100749.25;5052995;28;20419;-60
2022/07/11 06:42:44;;;;;;;;;;;;;;;17.24;66.21;100748.38;5053692;28;20562;-59
2022/07/11 06:45:28;;;;;;;10.07;7.32;;;;;;;17.23;66.18;100753.63;5053355;28;19919;-60
2022/07/11 06:48:12;;;;;;;9.63;6.38;;;;;;;17.23;66.38;100749.25;5037880;28;20044;-60
2022/07/11 06:50:56;;;;;;;8.13;7.20;;;;;;;17.24;66.44;100750.16;5053252;28;20068;-60
2022/07/11 06:53:42;;;;;;;9.85;6.75;;;;;;;17.23;66.45;100746.63;5053130;28;20088;-60
2022/07/11 06:56:26;;;;;;;9.32;6.53;;;;;;;17.25;66.48;100759.75;5053044;28;20048;-60
2022/07/11 06:59:10;;;;;;;12.90;7.85;;;;;;;17.27;66.35;100747.53;5037968;28;20487;-60
2022/07/11 07:01:54;;;;;;;11.35;6.88;;;;;;;17.28;66.40;100751.91;5052933;28;20056;-59
2022/07/11 07:04:38;;;;;;;11.27;8.35;;;;;;;17.28;66.49;100754.53;5053202;28;20139;-59
2022/07/11 07:07:22;;;;;;;13.32;7.40;;;;;;;17.28;66.29;100757.13;5053001;28;20123;-59
2022/07/11 07:10:06;;;;;;;;;;;;;;;17.28;66.48;100754.53;5053149;28;20051;-59
2022/07/11 07:12:50;;;;;;;11.20;7.70;;;;;;;17.27;66.44;100747.53;5052440;28;20426;-60
2022/07/11 07:15:34;;;;;;;16.52;8.57;;;;;;;17.28;66.57;100751.91;5052383;28;20090;-60
2022/07/11 07:18:18;;;;;;;13.52;7.43;;;;;;;17.29;66.60;100756.22;5040274;28;20043;-60
2022/07/11 07:21:02;;;;;;;12.38;7.53;;;;;;;17.29;66.77;100754.50;5056508;28;20559;-60
2022/07/11 07:23:46;;;;;;;12.30;8.15;;;;;;;17.29;66.69;100751.88;5056708;28;20132;-60
2022/07/11 07:26:31;;;;;;;9.77;6.38;;;;;;;17.30;66.77;100763.22;5056529;28;20140;-60
2022/07/11 07:29:15;;;;;;;12.13;7.05;;;;;;;17.31;66.81;100760.63;5056277;28;20048;-59
2022/07/11 07:31:59;;;;;;;11.82;8.05;;;;;;;17.31;66.86;100772.81;5056112;28;20051;-59
2022/07/11 07:34:43;;;;;;;13.05;7.35;;;;;;;17.31;66.82;100772.81;5056058;28;20044;-60
2022/07/11 07:37:27;;;;;;;13.70;7.85;;;;;;;17.32;66.82;100777.19;5056051;28;20079;-60
2022/07/11 07:40:11;;;;;;;12.50;8.50;;;;;;;17.32;66.57;100778.09;5056124;28;20091;-60
2022/07/11 07:42:55;;;;;;;9.80;8.10;;;;;;;17.33;66.81;100773.72;5056445;28;20170;-60
2022/07/11 07:45:39;;;;;;;12.18;7.55;;;;;;;17.33;66.84;100771.09;5041127;28;20048;-60
2022/07/11 07:48:23;;;;;;;10.13;7.75;;;;;;;17.33;66.74;100769.34;5056261;28;20469;-60
2022/07/11 07:51:07;;;;;;;9.65;7.45;;;;;;;17.34;67.01;100767.59;5056234;28;20128;-60
2022/07/11 07:53:51;;;;;;;;;;;;;;;17.32;66.81;100753.63;5056110;28;20079;-59
2022/07/11 07:56:35;;;;;;;13.75;8.77;;;;;;;17.31;66.69;100759.72;5055955;28;20051;-60
2022/07/11 07:59:19;;;;;;;13.70;8.18;;;;;;;17.32;66.90;100757.13;5055368;28;20048;-61
2022/07/11 08:02:04;;;;;;;13.48;8.48;;;;;;;17.33;67.02;100752.75;5055465;28;20508;-59
2022/07/11 08:04:48;;;;;;;16.70;8.48;;;;;;;17.33;66.88;100750.13;5040772;28;20521;-60
2022/07/11 08:07:33;;;;;;;13.90;9.02;;;;;;;17.34;66.73;100747.53;5055346;28;20051;-59
2022/07/11 08:10:16;;;;;;;;;;;;;;;17.34;66.92;100744.03;5056186;28;20107;-60
2022/07/11 08:13:01;;;;;;;13.77;7.78;;;;;;;17.33;66.92;100745.78;5040420;28;19924;-60
2022/07/11 08:15:45;;;;;;;;;;;;;;;17.33;66.95;100751.03;5055907;28;20047;-60
2022/07/11 08:18:30;;;;;;;;;;;;;;;17.32;67.23;100743.13;5041200;28;20295;-60
2022/07/11 08:21:14;;;;;;;10.15;7.53;;;;;;;17.33;67.22;100750.13;5055765;28;19927;-60
2022/07/11 08:23:58;;;;;;;13.85;8.75;;;;;;;17.34;67.26;100750.16;5055252;28;20071;-60
2022/07/11 08:26:42;;;;;;;;;;;;;;;17.34;67.45;100750.16;5055997;28;20048;-60
2022/07/11 08:29:26;;;;;;;17.85;8.40;;;;;;;17.34;67.10;100750.16;5039591;28;19923;-60
2022/07/11 08:32:11;;;;;;;11.10;8.63;;;;;;;17.35;67.26;100738.81;5054765;28;20044;-60
2022/07/11 08:34:55;;;;;;;16.40;8.95;;;;;;;17.37;67.19;100735.28;5054790;28;20083;-60
2022/07/11 08:37:39;;;;;;;10.68;8.50;;;;;;;17.37;67.24;100733.53;5055099;28;20044;-60
2022/07/11 08:40:23;;;;;;;10.73;8.02;;;;;;;17.37;67.32;100723.06;5054864;28;20055;-60
2022/07/11 08:43:17;;;;;;;9.95;7.93;;;;;;;17.39;67.11;100725.66;5054978;28;20074;-60
2022/07/11 08:46:02;;;;;;;12.48;8.73;;;;;;;17.41;67.11;100731.78;5040019;28;20484;-60
2022/07/11 08:48:46;;;;;;;10.15;8.10;;;;;;;17.41;67.22;100739.66;5054635;28;20128;-60
2022/07/11 08:51:31;;;;;;;14.73;8.50;;;;;;;17.41;67.12;100751.00;5054636;28;20066;-60
2022/07/11 08:54:14;;;;;;;10.45;8.43;;;;;;;17.41;67.33;100756.25;5054709;28;20051;-60
2022/07/11 08:57:00;;;;;;;12.48;8.68;;;;;;;17.44;67.25;100760.59;5054392;28;20183;-60
2022/07/11 08:59:54;;;;;;;14.75;8.85;;;;;;;17.44;67.38;100750.13;5039657;28;20056;-60
2022/07/11 09:02:42;;;;;;;12.32;8.23;;;;;;;17.46;67.30;100748.38;5054607;28;20099;-60
2022/07/11 09:05:27;;;;;;;9.43;7.82;;;;;;;17.46;67.26;100748.38;5039885;28;20052;-60
2022/07/11 09:08:15;;;;;;;13.90;8.40;;;;;;;17.46;67.32;100751.00;5039289;28;20048;-60
2022/07/11 09:10:59;;;;;;;11.80;8.27;;;;;;;17.47;67.28;100744.88;5039723;28;20043;-59
2022/07/11 09:13:43;;;;;;;12.32;8.25;;;;;;;17.47;67.26;100761.47;5054064;28;20080;-60
2022/07/11 09:16:28;;;;;;;10.25;8.20;;;;;;;17.47;67.28;100753.59;5053899;28;20055;-60
2022/07/11 09:19:23;;;;;;;9.20;7.47;;;;;;;17.48;67.22;100759.75;5054155;28;20056;-60
2022/07/11 09:25:24;;;;;;;11.15;8.18;;;;;;;17.49;67.35;100751.88;5053948;28;20055;-59
2022/07/11 09:28:08;;;;;;;11.73;8.77;;;;;;;17.49;67.44;100743.16;5038879;28;20582;-59
2022/07/11 09:30:52;;;;;;;9.40;8.20;;;;;;;17.49;67.54;100749.25;5054009;28;20044;-59
2022/07/11 09:33:56;;;;;;;12.70;8.05;;;;;;;17.50;67.42;100744.88;5054045;28;20051;-59
2022/07/11 09:36:51;;;;;;;10.30;7.27;;;;;;;17.49;67.36;100737.91;5039165;28;20056;-59
2022/07/11 09:39:35;;;;;;;9.60;7.40;;;;;;;17.50;67.49;100745.75;5053438;28;20055;-60
2022/07/11 09:42:19;;;;;;;9.57;7.80;;;;;;;17.53;67.53;100747.47;5053831;28;20415;-59
2022/07/11 09:45:12;;;;;;;15.05;8.40;;;;;;;17.55;67.55;100752.75;5053965;28;20128;-59
2022/07/11 09:47:58;;;;;;;12.90;8.23;;;;;;;17.55;67.42;100753.59;5038822;28;20128;-58
2022/07/11 09:50:56;;;;;;;10.43;8.40;;;;;;;17.56;67.57;100747.47;5039072;28;20071;-59
2022/07/11 09:53:54;;;;;;;12.32;8.68;;;;;;;17.57;67.69;100745.75;5038696;28;20170;-58
2022/07/11 09:56:45;;;;;;;20.88;8.32;;;;;;;17.59;67.74;100744.00;5038400;28;20056;-59
2022/07/11 09:59:29;;;;;;;11.98;8.48;;;;;;;17.59;67.79;100746.63;5038456;28;20094;-59
2022/07/11 10:02:14;;;;;;;13.10;8.80;;;;;;;17.58;67.89;100753.59;5053512;28;20558;-60
2022/07/11 10:04:59;;;;;;;12.77;8.02;;;;;;;17.57;67.75;100744.00;5038762;28;20079;-58
2022/07/11 10:07:44;;;;;;;9.93;8.10;;;;;;;17.57;67.61;100737.88;5038719;28;20043;-59
2022/07/11 10:10:29;;;;;;;11.43;8.02;;;;;;;17.57;67.31;100738.75;5053117;28;20423;-58
2022/07/11 10:13:14;;;;;;;9.27;7.43;;;;;;;17.58;67.64;100745.75;5038169;28;20419;-60
2022/07/11 10:16:03;;;;;;;10.45;7.47;;;;;;;17.59;67.43;100744.88;5053325;28;20606;-60
2022/07/11 10:19:12;;;;;;;10.60;6.88;;;;;;;17.59;67.45;100755.34;5038361;28;20048;-60
2022/07/11 10:22:09;;;;;;;10.23;8.25;;;;;;;17.62;67.76;100749.22;5038360;28;20089;-58
2022/07/11 10:25:10;;;;;;;10.52;7.05;;;;;;;17.61;67.66;100756.22;5052980;28;20534;-59
2022/07/11 10:28:12;;;;;;;9.10;6.30;;;;;;;17.61;67.62;100755.34;5053543;28;20060;-59
2022/07/11 10:30:59;;;;;;;9.82;6.57;;;;;;;17.63;67.84;100757.09;5053213;28;20531;-60
2022/07/11 10:34:01;;;;;;;12.45;7.30;;;;;;;17.63;67.79;100753.59;5052932;28;20548;-60
2022/07/11 10:36:45;;;;;;;9.73;6.85;;;;;;;17.63;67.74;100759.72;5053291;28;20067;-60
2022/07/11 10:39:32;;;;;;;12.27;6.53;;;;;;;17.65;67.86;100757.97;5053219;28;20535;-60
2022/07/11 10:42:20;;;;;;;11.45;7.28;;;;;;;17.68;67.89;100764.06;5053015;28;20052;-60
2022/07/11 10:45:11;;;;;;;7.15;5.97;;;;;;;17.68;67.94;100762.31;5052921;28;20044;-60
2022/07/11 10:48:10;;;;;;;10.32;6.32;;;;;;;17.69;67.96;100757.94;5052902;28;20067;-60
2022/07/11 10:51:04;;;;;;;6.80;5.63;;;;;;;17.69;67.95;100764.06;5037798;28;20052;-60
2022/07/11 10:53:52;;;;;;;8.40;6.63;;;;;;;17.69;67.77;100763.19;5042205;28;20562;-60
2022/07/11 10:56:46;;;;;;;12.57;6.25;;;;;;;17.69;67.80;100764.06;5057035;28;20094;-59
2022/07/11 10:59:30;;;;;;;8.07;5.35;;;;;;;17.70;67.73;100762.31;5042310;28;20459;-60
2022/07/11 11:02:14;;;;;;;9.68;6.18;;;;;;;17.70;67.89;100762.31;5041754;28;20114;-60
2022/07/11 11:04:59;;;;;;;;;;;;;;;17.69;67.83;100757.94;5057196;28;20468;-60
2022/07/11 11:07:44;;;;;;;8.55;5.72;;;;;;;17.70;68.01;100764.94;5041980;28;19971;-59
2022/07/11 11:10:38;;;;;;;8.43;4.97;;;;;;;17.70;67.94;100763.19;5041794;28;20508;-60
2022/07/11 11:13:23;;;;;;;9.07;6.20;;;;;;;17.69;67.87;100761.44;5041464;28;20119;-60
2022/07/11 11:16:22;;;;;;;8.15;5.10;;;;;;;17.70;68.02;100763.19;5056086;28;20044;-60
2022/07/11 11:19:06;;;;;;;8.23;5.47;;;;;;;17.69;67.80;100761.44;5056489;28;20075;-59
2022/07/11 11:22:01;;;;;;;6.47;5.47;;;;;;;17.71;67.77;100766.66;5056442;28;20098;-60
2022/07/11 11:24:52;;;;;;;11.48;5.88;;;;;;;17.72;68.18;100755.31;5056228;28;20059;-60
2022/07/11 11:27:36;;;;;;;9.45;5.65;;;;;;;17.73;68.14;100763.19;5041542;28;20126;-60
2022/07/11 11:30:20;;;;;;;6.80;5.53;;;;;;;17.75;68.06;100766.66;5056480;28;20048;-60
2022/07/11 11:33:15;;;;;;;13.70;5.70;;;;;;;17.77;68.03;100764.91;5056048;28;20567;-60
2022/07/11 11:36:05;;;;;;;6.10;5.32;;;;;;;17.78;68.35;100764.03;5041383;28;20044;-60
2022/07/11 11:38:50;;;;;;;7.68;5.13;;;;;;;17.77;68.10;100748.31;5056252;28;20420;-60
2022/07/11 11:41:34;;;;;;;8.35;5.78;;;;;;;17.77;68.20;100759.66;5041423;28;20059;-58
2022/07/11 11:44:18;;;;;;;6.80;4.72;;;;;;;17.78;68.01;100752.69;5041244;28;20052;-60
2022/07/11 11:47:02;;;;;;;8.88;5.40;;;;;;;17.76;68.11;100754.44;5056117;28;20047;-58
2022/07/11 11:49:47;;;;;;;7.65;5.70;;;;;;;17.78;68.38;100748.31;5056049;28;20052;-58
2022/07/11 11:52:32;;;;;;;6.82;4.55;;;;;;;17.81;68.18;100750.06;5056343;28;20454;-58
2022/07/11 11:55:17;;;;;;;8.15;4.80;;;;;;;17.83;68.30;100750.91;5055855;28;20079;-58
2022/07/11 11:58:01;;;;;;;6.82;4.78;;;;;;;17.83;67.99;100753.53;5055741;28;20511;-59
2022/07/11 12:00:55;;;;;;;8.07;5.47;;;;;;;17.84;68.26;100760.53;5055408;28;20526;-59
2022/07/11 12:03:49;;;;;;;6.38;4.70;;;;;;;17.87;68.13;100751.78;5055290;28;20146;-59
2022/07/11 12:06:36;;;;;;;7.03;4.72;;;;;;;17.85;68.03;100750.94;5055612;28;20056;-58
2022/07/11 12:10:07;;;;;;;9.73;4.93;;;;;;;17.84;67.96;100752.66;5040186;28;20052;-58
2022/07/11 12:12:43;;;;;;;6.10;4.32;;;;;;;17.85;68.21;100746.53;5052211;28;20048;-59
2022/07/11 12:16:39;;;;;;;8.77;4.55;;;;;;;17.86;68.13;100748.28;5055368;28;20098;-58
2022/07/11 12:18:42;;;;;;;6.10;3.95;;;;;;;17.88;68.14;100745.69;5055074;28;20152;-59
2022/07/11 12:21:29;;;;;;;6.25;4.45;;;;;;;17.88;68.28;100743.91;5055591;28;20083;-60
2022/07/11 12:24:22;;;;;;;6.40;3.85;;;;;;;17.89;67.91;100748.28;5040333;28;20044;-59
2022/07/11 12:27:05;;;;;;;5.50;4.15;;;;;;;17.89;68.34;100731.69;5040043;28;20055;-60
2022/07/11 12:29:50;;;;;;;5.22;3.75;;;;;;;17.87;68.22;100736.94;5055443;28;20068;-60
2022/07/11 12:32:34;;;;;;;8.20;4.15;;;;;;;17.87;68.08;100736.94;5055323;28;20056;-58
2022/07/11 12:35:18;;;;;;;5.20;3.45;;;;;;;17.87;68.09;100738.69;5055095;28;20047;-60
2022/07/11 12:38:02;;;;;;;6.38;3.83;;;;;;;17.89;68.08;100732.56;5054690;28;20048;-59
2022/07/11 12:41:00;;;;;;;5.13;3.65;;;;;;;17.89;68.08;100736.94;5055132;28;20044;-59
2022/07/11 12:46:50;;;;;;;4.38;3.55;;;;;;;17.91;68.02;100732.53;5054901;28;20071;-59
2022/07/11 12:49:34;;;;;;;6.93;3.83;;;;;;;17.91;68.12;100733.41;5054857;28;20052;-60
2022/07/11 12:52:18;;;;;;;4.82;2.97;;;;;;;17.95;68.24;100727.28;5054666;28;20048;-60
2022/07/11 12:55:02;;;;;;;5.90;3.42;;;;;;;17.96;68.41;100731.66;5054843;28;20516;-60
2022/07/11 12:58:02;;;;;;;;;;;;;;;17.97;68.06;100729.91;5040032;28;20052;-60